createdAt,value
2022-09-10T00:00:00.876Z,100548.06
2022-09-10T00:02:32.065Z,100542.69
2022-09-10T00:05:00.393Z,100542.03
2022-09-10T00:07:28.146Z,100538.66
2022-09-10T00:09:55.801Z,100535.34
2022-09-10T00:12:23.444Z,100542.63
2022-09-10T00:14:52.324Z,100543.88
2022-09-10T00:17:19.968Z,100540.03
2022-09-10T00:19:48.971Z,100539.50
2022-09-10T00:22:16.772Z,100548.72
2022-09-10T00:24:44.403Z,100544.94
2022-09-10T00:27:12.045Z,100540.56
2022-09-10T00:29:39.700Z,100543.00
2022-09-10T00:32:07.582Z,100550.38
2022-09-10T00:34:35.263Z,100546.25
2022-09-10T00:37:04.279Z,100553.63
2022-09-10T00:39:31.957Z,100551.28
2022-09-10T00:41:59.610Z,100551.06
2022-09-10T00:45:03.024Z,100552.69
2022-09-10T00:47:34.077Z,100555.19
2022-09-10T00:50:05.665Z,100558.59
2022-09-10T00:52:39.422Z,100563.22
2022-09-10T00:55:08.717Z,100562.03
2022-09-10T00:57:36.527Z,100561.75
2022-09-10T01:00:08.373Z,100560.28
2022-09-10T01:02:36.063Z,100562.94
2022-09-10T01:05:05.044Z,100558.75
2022-09-10T01:07:34.742Z,100554.13
2022-09-10T01:10:04.922Z,100559.19
2022-09-10T01:13:04.952Z,100555.16
2022-09-10T01:15:38.061Z,100556.56
2022-09-10T01:18:14.836Z,100554.69
2022-09-10T01:21:02.328Z,100554.69
2022-09-10T01:23:57.363Z,100553.59
2022-09-10T01:26:50.652Z,100563.88
2022-09-10T01:29:24.815Z,100554.13
2022-09-10T01:31:55.196Z,100555.81
2022-09-10T01:34:29.639Z,100562.28
2022-09-10T01:37:00.807Z,100552.78
2022-09-10T01:39:30.378Z,100554.13
2022-09-10T01:41:58.716Z,100554.13
2022-09-10T01:44:47.071Z,100556.56
2022-09-10T01:47:28.479Z,100561.16
2022-09-10T01:50:06.040Z,100563.97
2022-09-10T01:52:42.107Z,100556.38
2022-09-10T01:55:18.056Z,100567.03
2022-09-10T01:57:52.860Z,100568.03
2022-09-10T02:00:22.852Z,100572.50
2022-09-10T02:02:54.677Z,100576.09
2022-09-10T02:05:24.199Z,100564.75
2022-09-10T02:07:55.000Z,100562.66
2022-09-10T02:10:23.603Z,100562.72
2022-09-10T02:12:51.253Z,100568.31
2022-09-10T02:15:19.664Z,100558.53
2022-09-10T02:17:50.055Z,100567.63
2022-09-10T02:20:19.684Z,100556.25
2022-09-10T02:22:49.709Z,100560.44
2022-09-10T02:25:17.568Z,100560.44
2022-09-10T02:27:45.496Z,100557.28
2022-09-10T02:30:13.645Z,100565.09
2022-09-10T02:32:41.301Z,100559.22
2022-09-10T02:35:10.598Z,100562.78
2022-09-10T02:37:38.468Z,100562.25
2022-09-10T02:40:07.326Z,100563.38
2022-09-10T02:42:35.019Z,100569.06
2022-09-10T02:45:02.674Z,100563.34
2022-09-10T02:47:30.318Z,100561.31
2022-09-10T02:49:57.980Z,100560.72
2022-09-10T02:52:26.975Z,100558.00
2022-09-10T02:54:54.627Z,100559.09
2022-09-10T02:57:22.284Z,100561.59
2022-09-10T02:59:49.916Z,100561.00
2022-09-10T03:02:17.590Z,100556.53
2022-09-10T03:04:45.224Z,100564.00
2022-09-10T03:07:16.929Z,100562.56
2022-09-10T03:09:45.901Z,100569.41
2022-09-10T03:12:15.697Z,100561.25
2022-09-10T03:14:43.432Z,100565.75
2022-09-10T03:17:11.400Z,100561.63
2022-09-10T03:19:39.938Z,100568.69
2022-09-10T03:22:07.608Z,100568.28
2022-09-10T03:24:35.272Z,100563.13
2022-09-10T03:27:04.739Z,100567.69
2022-09-10T03:29:32.376Z,100564.06
2022-09-10T03:32:02.979Z,100567.19
2022-09-10T03:34:30.629Z,100571.44
2022-09-10T03:36:58.263Z,100569.97
2022-09-10T03:39:25.901Z,100571.59
2022-09-10T03:41:53.548Z,100568.78
2022-09-10T03:44:22.529Z,100572.63
2022-09-10T03:46:51.158Z,100573.41
2022-09-10T03:49:18.814Z,100564.63
2022-09-10T03:51:48.054Z,100563.78
2022-09-10T03:54:15.797Z,100564.91
2022-09-10T03:56:43.840Z,100571.44
2022-09-10T03:59:13.216Z,100568.22
2022-09-10T04:01:42.505Z,100564.34
2022-09-10T04:04:10.371Z,100563.88
2022-09-10T04:06:38.824Z,100560.94
2022-09-10T04:09:06.470Z,100561.97
2022-09-10T04:11:34.768Z,100561.88
2022-09-10T04:14:03.075Z,100550.34
2022-09-10T04:16:32.303Z,100558.34
2022-09-10T04:19:03.405Z,100557.34
2022-09-10T04:21:31.439Z,100558.69
2022-09-10T04:24:00.521Z,100558.06
2022-09-10T04:26:28.168Z,100571.16
2022-09-10T04:28:56.093Z,100563.00
2022-09-10T04:31:23.909Z,100579.91
2022-09-10T04:33:51.592Z,100571.44
2022-09-10T04:36:20.576Z,100577.78
2022-09-10T04:38:48.297Z,100570.75
2022-09-10T04:41:18.052Z,100580.59
2022-09-10T04:43:45.992Z,100580.84
2022-09-10T04:46:13.657Z,100584.88
2022-09-10T04:48:41.394Z,100588.34
2022-09-10T04:51:17.547Z,100580.97
2022-09-10T04:53:47.226Z,100587.06
2022-09-10T04:56:15.371Z,100591.13
2022-09-10T04:58:44.064Z,100586.03
2022-09-10T05:01:13.459Z,100587.97
2022-09-10T05:03:41.553Z,100587.75
2022-09-10T05:06:09.506Z,100588.09
2022-09-10T05:08:37.360Z,100591.69
2022-09-10T05:11:06.675Z,100598.38
2022-09-10T05:13:34.360Z,100598.50
2022-09-10T05:16:02.205Z,100599.56
2022-09-10T05:18:30.000Z,100593.25
2022-09-10T05:20:57.660Z,100591.47
2022-09-10T05:23:25.523Z,100593.69
2022-09-10T05:25:53.940Z,100601.34
2022-09-10T05:28:22.901Z,100609.31
2022-09-10T05:30:51.926Z,100603.22
2022-09-10T05:33:19.731Z,100608.03
2022-09-10T05:35:51.460Z,100604.88
2022-09-10T05:38:19.423Z,100611.75
2022-09-10T05:40:47.102Z,100615.06
2022-09-10T05:43:14.751Z,100606.91
2022-09-10T05:45:43.822Z,100609.25
2022-09-10T05:48:11.487Z,100610.91
2022-09-10T05:50:39.236Z,100598.06
2022-09-10T05:53:06.927Z,100600.44
2022-09-10T05:55:34.897Z,100613.00
2022-09-10T05:58:05.355Z,100610.75
2022-09-10T06:00:33.560Z,100603.16
2022-09-10T06:03:03.664Z,100601.50
2022-09-10T06:05:31.546Z,100608.38
2022-09-10T06:07:59.195Z,100614.09
2022-09-10T06:10:27.311Z,100626.16
2022-09-10T06:12:54.968Z,100622.34
2022-09-10T06:15:22.635Z,100626.94
2022-09-10T06:17:50.366Z,100625.63
2022-09-10T06:20:20.129Z,100631.06
2022-09-10T06:22:47.751Z,100633.53
2022-09-10T06:25:15.505Z,100633.88
2022-09-10T06:27:43.154Z,100635.50
2022-09-10T06:30:11.613Z,100646.94
2022-09-10T06:32:40.050Z,100643.75
2022-09-10T06:35:07.980Z,100640.19
2022-09-10T06:37:36.944Z,100642.59
2022-09-10T06:40:05.153Z,100644.66
2022-09-10T06:42:33.040Z,100638.41
2022-09-10T06:45:01.037Z,100646.50
2022-09-10T06:50:17.468Z,100635.38
2022-09-10T06:52:48.636Z,100636.44
2022-09-10T06:55:16.336Z,100645.41
2022-09-10T06:57:44.261Z,100643.00
2022-09-10T07:00:14.088Z,100644.03
2022-09-10T07:02:41.836Z,100636.03
2022-09-10T07:05:09.711Z,100644.56
2022-09-10T07:07:37.731Z,100647.81
2022-09-10T07:10:07.635Z,100641.03
2022-09-10T07:12:35.300Z,100644.19
2022-09-10T07:15:04.989Z,100639.97
2022-09-10T07:17:35.734Z,100645.69
2022-09-10T07:20:05.190Z,100648.19
2022-09-10T07:22:32.893Z,100658.56
2022-09-10T07:25:00.560Z,100649.81
2022-09-10T07:27:29.542Z,100653.78
2022-09-10T07:29:57.219Z,100647.47
2022-09-10T07:32:24.873Z,100657.16
2022-09-10T07:34:55.785Z,100659.34
2022-09-10T07:37:23.534Z,100665.19
2022-09-10T07:39:51.266Z,100664.06
2022-09-10T07:42:18.951Z,100660.75
2022-09-10T07:44:47.976Z,100667.91
2022-09-10T07:47:15.621Z,100672.19
2022-09-10T07:49:44.561Z,100670.72
2022-09-10T07:52:12.276Z,100676.50
2022-09-10T07:54:39.953Z,100678.19
2022-09-10T07:57:07.608Z,100686.47
2022-09-10T07:59:35.263Z,100676.00
2022-09-10T08:02:04.715Z,100691.88
2022-09-10T08:04:36.574Z,100680.38
2022-09-10T08:07:05.135Z,100679.06
2022-09-10T08:09:33.251Z,100691.66
2022-09-10T08:12:00.924Z,100684.59
2022-09-10T08:14:29.859Z,100692.97
2022-09-10T08:16:57.585Z,100704.63
2022-09-10T08:19:26.555Z,100701.97
2022-09-10T08:21:54.222Z,100703.00
2022-09-10T08:24:22.144Z,100705.28
2022-09-10T08:26:49.974Z,100705.97
2022-09-10T08:29:17.629Z,100699.50
2022-09-10T08:31:45.291Z,100702.72
2022-09-10T08:34:13.664Z,100704.69
2022-09-10T08:36:42.651Z,100703.63
2022-09-10T08:39:10.543Z,100710.88
2022-09-10T08:41:47.231Z,100707.38
2022-09-10T08:44:20.575Z,100707.31
2022-09-10T08:46:51.469Z,100709.47
2022-09-10T08:49:25.224Z,100708.66
2022-09-10T08:51:58.353Z,100714.84
2022-09-10T08:54:29.082Z,100706.34
2022-09-10T08:57:00.433Z,100717.28
2022-09-10T08:59:32.462Z,100717.50
2022-09-10T09:02:03.021Z,100722.44
2022-09-10T09:04:37.656Z,100714.78
2022-09-10T09:07:13.395Z,100722.53
2022-09-10T09:09:41.251Z,100729.09
2022-09-10T09:12:16.258Z,100726.38
2022-09-10T09:14:53.178Z,100725.19
2022-09-10T09:17:53.733Z,100729.41
2022-09-10T09:20:29.503Z,100727.84
2022-09-10T09:23:04.697Z,100727.25
2022-09-10T09:25:34.565Z,100728.91
2022-09-10T09:28:04.685Z,100733.84
2022-09-10T09:30:35.428Z,100729.00
2022-09-10T09:33:12.241Z,100724.91
2022-09-10T09:35:44.355Z,100726.69
2022-09-10T09:38:19.601Z,100733.75
2022-09-10T09:40:48.791Z,100719.34
2022-09-10T09:43:23.991Z,100726.13
2022-09-10T09:45:53.747Z,100723.75
2022-09-10T09:48:22.800Z,100731.63
2022-09-10T09:50:53.328Z,100721.41
2022-09-10T09:53:25.090Z,100729.06
2022-09-10T09:55:54.661Z,100728.25
2022-09-10T09:58:36.537Z,100721.91
2022-09-10T10:01:14.424Z,100721.34
2022-09-10T10:03:50.130Z,100718.09
2022-09-10T10:06:21.025Z,100712.13
2022-09-10T10:08:57.991Z,100713.16
2022-09-10T10:11:41.749Z,100716.91
2022-09-10T10:14:15.475Z,100721.84
2022-09-10T10:16:43.212Z,100727.66
2022-09-10T10:19:29.223Z,100718.09
2022-09-10T10:21:58.168Z,100725.31
2022-09-10T10:24:33.863Z,100722.41
2022-09-10T10:27:02.985Z,100722.50
2022-09-10T10:29:30.865Z,100733.09
2022-09-10T10:32:05.494Z,100731.78
2022-09-10T10:34:47.378Z,100732.53
2022-09-10T10:37:18.301Z,100725.66
2022-09-10T10:39:58.716Z,100733.09
2022-09-10T10:42:30.724Z,100723.25
2022-09-10T10:45:19.056Z,100724.56
2022-09-10T10:47:49.602Z,100721.75
2022-09-10T10:50:26.900Z,100728.25
2022-09-10T10:53:12.312Z,100720.94
2022-09-10T10:55:42.855Z,100719.63
2022-09-10T10:58:18.773Z,100721.69
2022-09-10T11:00:48.512Z,100719.31
2022-09-10T11:03:21.166Z,100714.25
2022-09-10T11:05:51.385Z,100715.56
2022-09-10T11:08:23.199Z,100716.59
2022-09-10T11:10:56.711Z,100717.22
2022-09-10T11:13:27.224Z,100716.03
2022-09-10T11:15:59.683Z,100716.44
2022-09-10T11:18:33.269Z,100709.66
2022-09-10T11:21:04.917Z,100712.59
2022-09-10T11:23:35.997Z,100706.47
2022-09-10T11:26:08.376Z,100703.44
2022-09-10T11:28:39.498Z,100701.91
2022-09-10T11:31:13.076Z,100706.78
2022-09-10T11:33:47.081Z,100710.84
2022-09-10T11:36:22.891Z,100700.94
2022-09-10T11:38:57.349Z,100699.50
2022-09-10T11:41:30.012Z,100699.50
2022-09-10T11:44:05.615Z,100706.56
2022-09-10T11:46:36.946Z,100698.69
2022-09-10T11:49:07.788Z,100691.63
2022-09-10T11:51:37.815Z,100699.69
2022-09-10T11:54:07.821Z,100694.06
2022-09-10T11:56:48.859Z,100695.66
2022-09-10T11:59:27.296Z,100687.19
2022-09-10T12:02:29.097Z,100675.56
2022-09-10T12:05:00.095Z,100685.03
2022-09-10T12:07:37.377Z,100684.84
2022-09-10T12:10:14.586Z,100688.59
2022-09-10T12:12:44.889Z,100686.06
2022-09-10T12:15:19.739Z,100684.34
2022-09-10T12:17:49.582Z,100678.63
2022-09-10T12:20:20.442Z,100682.63
2022-09-10T12:22:52.516Z,100677.28
2022-09-10T12:25:33.212Z,100689.28
2022-09-10T12:28:07.450Z,100683.81
2022-09-10T12:31:03.410Z,100686.81
2022-09-10T12:34:06.949Z,100688.78
2022-09-10T12:37:14.516Z,100686.81
2022-09-10T12:39:42.214Z,100687.38
2022-09-10T12:42:37.459Z,100699.72
2022-09-10T12:45:09.568Z,100691.44
2022-09-10T12:47:50.230Z,100681.53
2022-09-10T12:50:31.928Z,100681.94
2022-09-10T12:53:38.915Z,100673.75
2022-09-10T12:56:33.871Z,100682.13
2022-09-10T12:59:14.068Z,100672.91
2022-09-10T13:01:46.145Z,100681.00
2022-09-10T13:04:24.240Z,100676.25
2022-09-10T13:06:54.048Z,100683.81
2022-09-10T13:09:24.233Z,100675.66
2022-09-10T13:11:53.956Z,100670.81
2022-09-10T13:14:24.596Z,100668.38
2022-09-10T13:16:55.176Z,100670.16
2022-09-10T13:19:48.783Z,100674.53
2022-09-10T13:23:05.822Z,100668.38
2022-09-10T13:25:36.838Z,100668.56
2022-09-10T13:28:43.821Z,100676.06
2022-09-10T13:31:18.233Z,100671.81
2022-09-10T13:34:09.876Z,100672.41
2022-09-10T13:36:43.819Z,100672.03
2022-09-10T13:39:24.961Z,100669.59
2022-09-10T13:42:03.817Z,100658.47
2022-09-10T13:44:52.399Z,100656.78
2022-09-10T13:47:25.509Z,100664.16
2022-09-10T13:49:57.428Z,100666.56
2022-09-10T13:52:29.972Z,100659.78
2022-09-10T13:54:59.264Z,100664.75
2022-09-10T13:57:29.393Z,100666.34
2022-09-10T14:00:05.733Z,100668.78
2022-09-10T14:02:45.329Z,100668.25
2022-09-10T14:05:31.252Z,100674.16
2022-09-10T14:08:05.036Z,100678.81
2022-09-10T14:10:34.515Z,100676.56
2022-09-10T14:13:03.542Z,100681.81
2022-09-10T14:15:36.234Z,100673.94
2022-09-10T14:18:04.167Z,100680.09
2022-09-10T14:20:35.076Z,100690.31
2022-09-10T14:23:05.052Z,100682.47
2022-09-10T14:25:35.153Z,100677.88
2022-09-10T14:28:17.412Z,100673.63
2022-09-10T14:30:45.809Z,100676.44
2022-09-10T14:33:25.280Z,100677.97
2022-09-10T14:35:55.360Z,100676.88
2022-09-10T14:38:27.268Z,100672.84
2022-09-10T14:40:58.264Z,100667.59
2022-09-10T14:43:31.497Z,100671.00
2022-09-10T14:45:59.622Z,100668.91
2022-09-10T14:48:35.224Z,100671.53
2022-09-10T14:51:18.449Z,100678.19
2022-09-10T14:53:50.384Z,100675.78
2022-09-10T14:56:24.658Z,100684.34
2022-09-10T14:58:57.848Z,100680.19
2022-09-10T15:01:25.899Z,100684.53
2022-09-10T15:03:53.827Z,100691.03
2022-09-10T15:06:26.192Z,100687.81
2022-09-10T15:08:55.843Z,100682.03
2022-09-10T15:11:25.495Z,100689.41
2022-09-10T15:13:55.669Z,100686.88
2022-09-10T15:16:23.883Z,100681.13
2022-09-10T15:18:51.544Z,100689.09
2022-09-10T15:21:19.259Z,100690.00
2022-09-10T15:23:48.430Z,100686.47
2022-09-10T15:26:16.510Z,100698.50
2022-09-10T15:28:44.656Z,100691.44
2022-09-10T15:31:12.457Z,100702.34
2022-09-10T15:33:40.423Z,100711.03
2022-09-10T15:36:08.884Z,100710.13
2022-09-10T15:38:36.541Z,100709.72
2022-09-10T15:41:12.529Z,100711.75
2022-09-10T15:43:42.737Z,100715.91
2022-09-10T15:46:10.910Z,100716.59
2022-09-10T15:48:39.027Z,100714.47
2022-09-10T15:51:08.969Z,100713.53
2022-09-10T15:53:36.812Z,100706.41
2022-09-10T15:56:07.535Z,100706.41
2022-09-10T15:58:37.547Z,100706.59
2022-09-10T16:01:07.528Z,100703.84
2022-09-10T16:03:35.557Z,100709.59
2022-09-10T16:06:06.209Z,100705.69
2022-09-10T16:08:34.316Z,100698.31
2022-09-10T16:11:07.548Z,100697.50
2022-09-10T16:13:39.588Z,100696.88
2022-09-10T16:16:09.428Z,100702.34
2022-09-10T16:18:38.294Z,100699.09
2022-09-10T16:21:09.266Z,100704.16
2022-09-10T16:23:37.839Z,100711.06
2022-09-10T16:26:06.609Z,100713.78
2022-09-10T16:28:35.757Z,100706.78
2022-09-10T16:31:13.736Z,100711.75
2022-09-10T16:33:41.548Z,100714.88
2022-09-10T16:36:10.832Z,100705.16
2022-09-10T16:38:38.518Z,100721.16
2022-09-10T16:41:07.416Z,100731.03
2022-09-10T16:43:37.277Z,100726.56
2022-09-10T16:46:05.771Z,100731.84
2022-09-10T16:48:34.660Z,100733.19
2022-09-10T16:51:03.306Z,100726.41
2022-09-10T16:53:31.248Z,100727.63
2022-09-10T16:56:01.707Z,100720.94
2022-09-10T16:58:35.238Z,100721.44
2022-09-10T17:01:08.734Z,100725.72
2022-09-10T17:03:36.971Z,100732.66
2022-09-10T17:06:04.988Z,100735.00
2022-09-10T17:08:34.449Z,100736.78
2022-09-10T17:11:02.321Z,100741.88
2022-09-10T17:13:30.384Z,100741.00
2022-09-10T17:18:57.843Z,100743.75
2022-09-10T17:21:26.413Z,100750.00
2022-09-10T17:23:54.790Z,100739.81
2022-09-10T17:26:24.058Z,100739.13
2022-09-10T17:28:55.629Z,100747.16
2022-09-10T17:31:23.650Z,100745.41
2022-09-10T17:33:51.526Z,100746.81
2022-09-10T17:36:20.794Z,100746.03
2022-09-10T17:38:48.696Z,100746.81
2022-09-10T17:41:16.460Z,100750.16
2022-09-10T17:43:44.616Z,100750.47
2022-09-10T17:46:17.659Z,100748.16
2022-09-10T17:48:46.230Z,100744.50
2022-09-10T17:51:15.262Z,100748.25
2022-09-10T17:53:44.402Z,100744.19
2022-09-10T17:56:14.327Z,100748.22
2022-09-10T17:58:42.329Z,100750.72
2022-09-10T18:01:13.103Z,100744.69
2022-09-10T18:03:41.628Z,100758.16
2022-09-10T18:06:11.131Z,100764.84
2022-09-10T18:08:40.652Z,100774.25
2022-09-10T18:11:12.084Z,100769.69
2022-09-10T18:13:40.192Z,100775.44
2022-09-10T18:16:09.118Z,100777.78
2022-09-10T18:18:38.031Z,100795.34
2022-09-10T18:21:16.564Z,100794.09
2022-09-10T18:23:44.575Z,100799.56
2022-09-10T18:26:15.454Z,100806.53
2022-09-10T18:28:43.972Z,100816.41
2022-09-10T18:31:12.627Z,100821.09
2022-09-10T18:33:41.988Z,100818.94
2022-09-10T18:36:14.911Z,100824.22
2022-09-10T18:38:44.270Z,100826.81
2022-09-10T18:41:22.557Z,100820.50
2022-09-10T18:43:51.361Z,100829.75
2022-09-10T18:46:23.566Z,100832.88
2022-09-10T18:48:53.144Z,100830.25
2022-09-10T18:51:24.743Z,100840.28
2022-09-10T18:53:54.268Z,100829.88
2022-09-10T18:56:25.389Z,100835.88
2022-09-10T18:58:55.780Z,100839.31
2022-09-10T19:01:24.879Z,100839.56
2022-09-10T19:03:53.502Z,100841.69
2022-09-10T19:06:24.760Z,100839.47
2022-09-10T19:08:54.343Z,100840.50
2022-09-10T19:11:26.126Z,100846.69
2022-09-10T19:13:55.373Z,100843.72
2022-09-10T19:16:25.382Z,100845.03
2022-09-10T19:18:54.221Z,100846.88
2022-09-10T19:21:22.719Z,100846.88
2022-09-10T19:23:54.226Z,100851.22
2022-09-10T19:26:26.255Z,100852.44
2022-09-10T19:28:57.402Z,100853.84
2022-09-10T19:31:26.917Z,100854.13
2022-09-10T19:33:56.396Z,100859.59
2022-09-10T19:36:27.532Z,100862.03
2022-09-10T19:38:55.599Z,100857.97
2022-09-10T19:41:25.567Z,100864.63
2022-09-10T19:43:55.021Z,100873.28
2022-09-10T19:46:24.933Z,100864.00
2022-09-10T19:48:53.278Z,100879.44
2022-09-10T19:51:22.504Z,100866.47
2022-09-10T19:53:51.113Z,100874.34
2022-09-10T19:56:20.870Z,100874.94
2022-09-10T19:58:51.404Z,100878.78
2022-09-10T20:01:20.546Z,100878.78
2022-09-10T20:03:50.607Z,100876.31
2022-09-10T20:06:20.442Z,100870.56
2022-09-10T20:08:50.500Z,100875.38
2022-09-10T20:11:20.136Z,100869.66
2022-09-10T20:13:47.856Z,100869.66
2022-09-10T20:16:18.188Z,100875.56
2022-09-10T20:18:46.581Z,100877.25
2022-09-10T20:21:16.337Z,100874.00
2022-09-10T20:23:45.529Z,100871.63
2022-09-10T20:26:15.829Z,100870.97
2022-09-10T20:28:44.391Z,100870.56
2022-09-10T20:31:13.535Z,100866.59
2022-09-10T20:33:43.276Z,100865.97
2022-09-10T20:36:12.641Z,100865.72
2022-09-10T20:38:40.470Z,100866.84
2022-09-10T20:41:08.477Z,100858.13
2022-09-10T20:43:36.528Z,100867.25
2022-09-10T20:46:05.026Z,100859.91
2022-09-10T20:48:32.826Z,100862.13
2022-09-10T20:51:02.875Z,100859.31
2022-09-10T20:53:30.681Z,100868.28
2022-09-10T20:56:06.211Z,100866.97
2022-09-10T20:58:35.267Z,100870.88
2022-09-10T21:01:08.686Z,100865.03
2022-09-10T21:03:36.508Z,100868.84
2022-09-10T21:06:05.885Z,100875.19
2022-09-10T21:08:33.563Z,100874.25
2022-09-10T21:11:05.471Z,100869.66
2022-09-10T21:13:35.882Z,100875.84
2022-09-10T21:16:10.099Z,100886.56
2022-09-10T21:18:37.841Z,100886.53
2022-09-10T21:21:08.353Z,100892.31
2022-09-10T21:23:36.712Z,100893.22
2022-09-10T21:26:05.448Z,100904.16
2022-09-10T21:28:33.140Z,100905.53
2022-09-10T21:31:04.932Z,100903.06
2022-09-10T21:33:33.302Z,100896.63
2022-09-10T21:36:06.678Z,100899.78
2022-09-10T21:38:35.927Z,100902.53
2022-09-10T21:41:10.139Z,100905.19
2022-09-10T21:43:37.777Z,100896.47
2022-09-10T21:46:08.436Z,100905.16
2022-09-10T21:48:36.669Z,100905.88
2022-09-10T21:51:07.541Z,100913.81
2022-09-10T21:53:36.532Z,100909.69
2022-09-10T21:56:05.319Z,100921.75
2022-09-10T21:58:34.998Z,100917.31
2022-09-10T22:01:05.903Z,100920.72
2022-09-10T22:03:36.948Z,100925.97
2022-09-10T22:06:06.649Z,100931.06
2022-09-10T22:08:37.318Z,100921.06
2022-09-10T22:11:07.306Z,100918.00
2022-09-10T22:13:37.711Z,100927.22
2022-09-10T22:16:06.149Z,100936.56
2022-09-10T22:18:34.386Z,100930.22
2022-09-10T22:21:06.672Z,100932.66
2022-09-10T22:23:37.197Z,100931.22
2022-09-10T22:26:05.616Z,100935.34
2022-09-10T22:28:36.199Z,100942.47
2022-09-10T22:31:08.662Z,100939.16
2022-09-10T22:33:37.976Z,100948.88
2022-09-10T22:36:12.731Z,100947.22
2022-09-10T22:38:42.250Z,100946.59
2022-09-10T22:41:10.567Z,100952.03
2022-09-10T22:43:38.661Z,100953.47
2022-09-10T22:46:07.656Z,100955.53
2022-09-10T22:48:37.431Z,100957.25
2022-09-10T22:51:06.500Z,100955.47
2022-09-10T22:53:34.345Z,100962.97
2022-09-10T22:56:04.561Z,100956.78
2022-09-10T22:58:35.961Z,100962.84
2022-09-10T23:01:06.049Z,100960.19
2022-09-10T23:03:33.987Z,100962.53
2022-09-10T23:06:06.180Z,100963.41
2022-09-10T23:08:35.001Z,100960.50
2022-09-10T23:11:15.163Z,100975.91
2022-09-10T23:13:43.436Z,100976.66
2022-09-10T23:16:13.535Z,100983.44
2022-09-10T23:18:41.845Z,100990.47
2022-09-10T23:21:09.958Z,100989.47
2022-09-10T23:23:37.613Z,100990.06
2022-09-10T23:26:07.220Z,100988.97
2022-09-10T23:28:36.677Z,100986.06
2022-09-10T23:31:13.977Z,100992.72
2022-09-10T23:33:42.935Z,100999.25
2022-09-10T23:36:11.648Z,101000.22
2022-09-10T23:38:39.652Z,100998.69
2022-09-10T23:41:08.473Z,100995.81
2022-09-10T23:43:37.524Z,101001.19
2022-09-10T23:46:05.463Z,101010.34
2022-09-10T23:48:33.332Z,101007.00
2022-09-10T23:51:03.405Z,101003.50
2022-09-10T23:53:31.968Z,101008.13
2022-09-10T23:56:00.162Z,101002.56
2022-09-10T23:58:27.812Z,101013.47
